sensor_id;sensor_type;location;lat;lon;timestamp;pressure;altitude;pressure_sealevel;temperature;humidity
38253;BME280;24785;52.372;20.672;2023-06-26T00:01:48;100702.00;;;11.42;100.00
38253;BME280;24785;52.372;20.672;2023-06-26T00:11:49;100702.00;;;11.37;100.00
38253;BME280;24785;52.372;20.672;2023-06-26T00:21:50;100688.84;;;11.46;100.00
38253;BME280;24785;52.372;20.672;2023-06-26T00:31:51;100691.81;;;11.39;100.00
38253;BME280;24785;52.372;20.672;2023-06-26T00:41:51;100689.13;;;11.24;100.00
38253;BME280;24785;52.372;20.672;2023-06-26T00:51:54;100686.22;;;11.00;100.00
38253;BME280;24785;52.372;20.672;2023-06-26T01:01:56;100684.06;;;10.87;100.00
38253;BME280;24785;52.372;20.672;2023-06-26T01:11:57;100673.88;;;10.84;100.00
38253;BME280;24785;52.372;20.672;2023-06-26T01:32:17;100654.06;;;10.49;100.00
38253;BME280;24785;52.372;20.672;2023-06-26T01:42:19;100653.22;;;10.33;100.00
38253;BME280;24785;52.372;20.672;2023-06-26T01:52:29;100641.41;;;10.24;100.00
38253;BME280;24785;52.372;20.672;2023-06-26T02:02:36;100638.44;;;10.16;100.00
38253;BME280;24785;52.372;20.672;2023-06-26T02:12:39;100640.81;;;10.07;100.00
38253;BME280;24785;52.372;20.672;2023-06-26T02:22:40;100642.38;;;9.93;100.00
38253;BME280;24785;52.372;20.672;2023-06-26T02:32:40;100632.72;;;9.87;100.00
38253;BME280;24785;52.372;20.672;2023-06-26T02:42:42;100637.56;;;9.90;100.00
38253;BME280;24785;52.372;20.672;2023-06-26T02:52:42;100640.22;;;9.85;100.00
38253;BME280;24785;52.372;20.672;2023-06-26T03:02:43;100657.69;;;10.07;100.00
38253;BME280;24785;52.372;20.672;2023-06-26T03:12:44;100648.97;;;10.43;100.00
38253;BME280;24785;52.372;20.672;2023-06-26T03:22:45;100650.25;;;12.01;100.00
38253;BME280;24785;52.372;20.672;2023-06-26T03:32:46;100654.09;;;15.47;100.00
38253;BME280;24785;52.372;20.672;2023-06-26T03:42:46;100653.88;;;17.72;76.63
38253;BME280;24785;52.372;20.672;2023-06-26T03:52:47;100636.78;;;19.39;66.75
38253;BME280;24785;52.372;20.672;2023-06-26T04:02:50;100635.88;;;20.15;63.61
38253;BME280;24785;52.372;20.672;2023-06-26T04:12:51;100632.97;;;21.67;59.02
38253;BME280;24785;52.372;20.672;2023-06-26T04:22:53;100626.19;;;23.29;55.98
38253;BME280;24785;52.372;20.672;2023-06-26T04:32:54;100625.47;;;22.85;57.85
38253;BME280;24785;52.372;20.672;2023-06-26T04:42:58;100617.19;;;24.14;55.62
38253;BME280;24785;52.372;20.672;2023-06-26T04:52:58;100613.00;;;25.77;50.86
38253;BME280;24785;52.372;20.672;2023-06-26T05:02:59;100611.91;;;25.85;49.78
38253;BME280;24785;52.372;20.672;2023-06-26T05:13:01;100613.53;;;25.90;50.69
38253;BME280;24785;52.372;20.672;2023-06-26T05:23:02;100615.44;;;24.26;53.97
38253;BME280;24785;52.372;20.672;2023-06-26T05:33:03;100610.16;;;23.78;55.51
38253;BME280;24785;52.372;20.672;2023-06-26T05:43:06;100613.53;;;23.40;57.17
38253;BME280;24785;52.372;20.672;2023-06-26T05:53:08;100604.22;;;23.26;58.57
38253;BME280;24785;52.372;20.672;2023-06-26T06:03:10;100596.81;;;23.10;59.27
38253;BME280;24785;52.372;20.672;2023-06-26T06:13:11;100591.59;;;23.37;56.44
38253;BME280;24785;52.372;20.672;2023-06-26T06:23:12;100588.81;;;23.52;56.85
38253;BME280;24785;52.372;20.672;2023-06-26T06:33:13;100574.97;;;24.58;53.52
38253;BME280;24785;52.372;20.672;2023-06-26T06:43:15;100578.97;;;24.02;52.82
38253;BME280;24785;52.372;20.672;2023-06-26T06:53:17;100565.66;;;24.01;53.05
38253;BME280;24785;52.372;20.672;2023-06-26T07:03:21;100562.47;;;24.37;48.44
38253;BME280;24785;52.372;20.672;2023-06-26T07:13:23;100558.94;;;23.98;50.26
38253;BME280;24785;52.372;20.672;2023-06-26T07:23:25;100557.44;;;24.39;48.58
38253;BME280;24785;52.372;20.672;2023-06-26T07:33:26;100550.84;;;24.63;48.43
38253;BME280;24785;52.372;20.672;2023-06-26T07:43:26;100541.63;;;24.75;47.49
38253;BME280;24785;52.372;20.672;2023-06-26T07:53:27;100546.19;;;24.90;45.80
38253;BME280;24785;52.372;20.672;2023-06-26T08:03:28;100532.41;;;24.87;44.82
38253;BME280;24785;52.372;20.672;2023-06-26T08:13:29;100539.22;;;24.96;43.94
38253;BME280;24785;52.372;20.672;2023-06-26T08:23:30;100532.47;;;25.66;42.12
38253;BME280;24785;52.372;20.672;2023-06-26T08:33:30;100522.38;;;26.07;41.79
38253;BME280;24785;52.372;20.672;2023-06-26T08:43:31;100518.28;;;26.31;42.34
38253;BME280;24785;52.372;20.672;2023-06-26T08:53:44;100510.25;;;26.49;39.20
38253;BME280;24785;52.372;20.672;2023-06-26T09:03:49;100516.63;;;26.19;40.62
38253;BME280;24785;52.372;20.672;2023-06-26T09:13:50;100510.25;;;25.78;41.27
38253;BME280;24785;52.372;20.672;2023-06-26T09:23:52;100484.47;;;26.60;37.47
38253;BME280;24785;52.372;20.672;2023-06-26T09:33:58;100488.78;;;26.21;38.52
38253;BME280;24785;52.372;20.672;2023-06-26T09:44:01;100483.72;;;25.89;36.73
38253;BME280;24785;52.372;20.672;2023-06-26T09:54:04;100480.56;;;25.87;39.25
38253;BME280;24785;52.372;20.672;2023-06-26T10:04:05;100467.22;;;26.67;36.27
38253;BME280;24785;52.372;20.672;2023-06-26T10:14:07;100451.56;;;26.75;35.00
38253;BME280;24785;52.372;20.672;2023-06-26T10:24:10;100461.25;;;26.14;34.55
38253;BME280;24785;52.372;20.672;2023-06-26T10:34:13;100442.88;;;26.65;36.42
38253;BME280;24785;52.372;20.672;2023-06-26T10:44:17;100445.63;;;27.27;36.73
38253;BME280;24785;52.372;20.672;2023-06-26T10:54:19;100435.41;;;27.24;35.37
38253;BME280;24785;52.372;20.672;2023-06-26T11:04:22;100420.56;;;27.47;35.69
38253;BME280;24785;52.372;20.672;2023-06-26T11:14:36;100411.44;;;27.25;35.88
38253;BME280;24785;52.372;20.672;2023-06-26T11:24:37;100416.16;;;26.62;37.29
38253;BME280;24785;52.372;20.672;2023-06-26T11:34:38;100422.41;;;26.59;37.00
38253;BME280;24785;52.372;20.672;2023-06-26T11:44:43;100411.72;;;27.02;36.72
38253;BME280;24785;52.372;20.672;2023-06-26T11:54:44;100408.69;;;27.28;36.98
38253;BME280;24785;52.372;20.672;2023-06-26T12:04:46;100392.34;;;27.64;35.45
38253;BME280;24785;52.372;20.672;2023-06-26T12:14:47;100366.81;;;28.10;33.71
38253;BME280;24785;52.372;20.672;2023-06-26T12:24:48;100361.31;;;27.99;33.21
38253;BME280;24785;52.372;20.672;2023-06-26T12:34:49;100351.09;;;28.46;33.17
38253;BME280;24785;52.372;20.672;2023-06-26T12:44:52;100343.03;;;27.23;34.54
38253;BME280;24785;52.372;20.672;2023-06-26T12:54:54;100336.09;;;28.58;33.45
38253;BME280;24785;52.372;20.672;2023-06-26T13:04:56;100319.78;;;29.13;30.54
38253;BME280;24785;52.372;20.672;2023-06-26T13:14:57;100306.81;;;29.72;30.65
38253;BME280;24785;52.372;20.672;2023-06-26T13:24:58;100298.84;;;29.85;30.23
38253;BME280;24785;52.372;20.672;2023-06-26T13:34:58;100296.72;;;29.52;30.62
38253;BME280;24785;52.372;20.672;2023-06-26T13:44:59;100276.31;;;29.31;30.36
38253;BME280;24785;52.372;20.672;2023-06-26T13:55:00;100264.75;;;28.74;31.74
38253;BME280;24785;52.372;20.672;2023-06-26T14:05:02;100254.97;;;29.39;30.57
38253;BME280;24785;52.372;20.672;2023-06-26T14:15:04;100240.06;;;29.26;31.38
38253;BME280;24785;52.372;20.672;2023-06-26T14:25:07;100249.34;;;28.80;31.47
38253;BME280;24785;52.372;20.672;2023-06-26T14:35:08;100236.03;;;28.68;32.65
38253;BME280;24785;52.372;20.672;2023-06-26T14:45:09;100214.34;;;28.70;32.02
38253;BME280;24785;52.372;20.672;2023-06-26T14:55:10;100207.38;;;28.47;32.79
38253;BME280;24785;52.372;20.672;2023-06-26T15:05:11;100194.25;;;28.73;31.90
38253;BME280;24785;52.372;20.672;2023-06-26T15:15:11;100176.53;;;29.36;31.03
38253;BME280;24785;52.372;20.672;2023-06-26T15:25:13;100150.88;;;34.47;25.36
38253;BME280;24785;52.372;20.672;2023-06-26T15:35:14;100145.13;;;36.00;22.92
38253;BME280;24785;52.372;20.672;2023-06-26T15:45:16;100135.78;;;34.86;23.96
38253;BME280;24785;52.372;20.672;2023-06-26T15:55:23;100134.34;;;31.53;26.91
38253;BME280;24785;52.372;20.672;2023-06-26T16:05:23;100130.56;;;30.66;28.41
38253;BME280;24785;52.372;20.672;2023-06-26T16:15:24;100118.66;;;30.69;29.32
38253;BME280;24785;52.372;20.672;2023-06-26T16:25:25;100120.97;;;29.34;30.67
38253;BME280;24785;52.372;20.672;2023-06-26T16:35:27;100118.41;;;29.09;31.36
38253;BME280;24785;52.372;20.672;2023-06-26T16:45:27;100116.97;;;28.91;31.98
38253;BME280;24785;52.372;20.672;2023-06-26T16:55:28;100111.88;;;28.82;32.65
38253;BME280;24785;52.372;20.672;2023-06-26T17:05:29;100128.69;;;28.29;33.11
38253;BME280;24785;52.372;20.672;2023-06-26T17:15:30;100129.44;;;28.36;33.52
38253;BME280;24785;52.372;20.672;2023-06-26T17:25:32;100133.47;;;28.14;34.00
38253;BME280;24785;52.372;20.672;2023-06-26T17:35:34;100123.31;;;27.86;34.38
38253;BME280;24785;52.372;20.672;2023-06-26T17:45:38;100124.94;;;27.48;36.19
38253;BME280;24785;52.372;20.672;2023-06-26T17:55:39;100111.56;;;26.96;36.92
38253;BME280;24785;52.372;20.672;2023-06-26T18:05:40;100116.28;;;25.95;39.56
38253;BME280;24785;52.372;20.672;2023-06-26T18:15:42;100125.25;;;24.89;43.57
38253;BME280;24785;52.372;20.672;2023-06-26T18:25:44;100144.16;;;23.51;47.59
38253;BME280;24785;52.372;20.672;2023-06-26T18:35:44;100151.13;;;22.61;50.78
38253;BME280;24785;52.372;20.672;2023-06-26T18:45:45;100148.34;;;21.84;55.59
38253;BME280;24785;52.372;20.672;2023-06-26T18:55:46;100168.38;;;21.13;59.36
38253;BME280;24785;52.372;20.672;2023-06-26T19:05:47;100159.53;;;20.44;64.18
38253;BME280;24785;52.372;20.672;2023-06-26T19:15:48;100155.19;;;19.78;65.46
38253;BME280;24785;52.372;20.672;2023-06-26T19:25:49;100162.06;;;19.27;67.48
38253;BME280;24785;52.372;20.672;2023-06-26T19:35:50;100161.34;;;19.06;72.32
38253;BME280;24785;52.372;20.672;2023-06-26T19:45:50;100157.97;;;18.55;74.29
38253;BME280;24785;52.372;20.672;2023-06-26T19:55:51;100148.34;;;18.04;78.98
38253;BME280;24785;52.372;20.672;2023-06-26T20:05:52;100131.84;;;17.50;82.33
38253;BME280;24785;52.372;20.672;2023-06-26T20:15:53;100130.75;;;17.13;81.45
38253;BME280;24785;52.372;20.672;2023-06-26T20:25:54;100119.97;;;17.04;83.69
38253;BME280;24785;52.372;20.672;2023-06-26T20:35:55;100102.81;;;16.83;84.78
38253;BME280;24785;52.372;20.672;2023-06-26T20:45:56;100108.72;;;16.59;84.91
38253;BME280;24785;52.372;20.672;2023-06-26T20:55:57;100093.28;;;16.51;88.14
38253;BME280;24785;52.372;20.672;2023-06-26T21:05:58;100094.06;;;16.51;95.05
38253;BME280;24785;52.372;20.672;2023-06-26T21:15:59;100107.31;;;16.35;100.00
38253;BME280;24785;52.372;20.672;2023-06-26T21:26:00;100102.06;;;16.04;100.00
38253;BME280;24785;52.372;20.672;2023-06-26T21:36:01;100105.38;;;15.93;100.00
38253;BME280;24785;52.372;20.672;2023-06-26T21:46:02;100112.84;;;15.79;100.00
38253;BME280;24785;52.372;20.672;2023-06-26T21:56:03;100119.19;;;15.74;100.00
38253;BME280;24785;52.372;20.672;2023-06-26T22:06:04;100114.44;;;15.88;100.00
38253;BME280;24785;52.372;20.672;2023-06-26T22:16:05;100111.91;;;15.83;100.00
38253;BME280;24785;52.372;20.672;2023-06-26T22:26:06;100091.22;;;15.70;100.00
38253;BME280;24785;52.372;20.672;2023-06-26T22:36:07;100094.75;;;15.31;100.00
38253;BME280;24785;52.372;20.672;2023-06-26T22:46:08;100099.38;;;15.48;100.00
38253;BME280;24785;52.372;20.672;2023-06-26T22:56:09;100085.25;;;15.51;100.00
38253;BME280;24785;52.372;20.672;2023-06-26T23:06:10;100057.59;;;15.45;100.00
38253;BME280;24785;52.372;20.672;2023-06-26T23:16:11;100049.44;;;15.67;100.00
38253;BME280;24785;52.372;20.672;2023-06-26T23:26:14;100032.75;;;15.83;100.00
38253;BME280;24785;52.372;20.672;2023-06-26T23:36:15;100007.00;;;15.85;100.00
38253;BME280;24785;52.372;20.672;2023-06-26T23:46:16;100063.59;;;17.06;99.51
38253;BME280;24785;52.372;20.672;2023-06-26T23:56:17;100057.69;;;19.16;70.34
